AirNav   Free SoundLink Mini II speaker
 
 1009 users online  

20CL Mysterious Valley Airport
Pope Valley, California, USA

GOING TO POPE VALLEY?


FAA INFORMATION EFFECTIVE 26 MARCH 2020

Location

FAA Identifier: 20CL
Lat/Long: 38-44-57.6490N 122-22-02.9220W
38-44.960817N 122-22.048700W
38.7493469,-122.3674783
(estimated)
Elevation: 1410 ft. / 430 m (estimated)
Variation: 16E (1985)
From city: 9 miles N of POPE VALLEY, CA
Time zone: UTC -7 (UTC -8 during Standard Time)
Zip code: 94558

Airport Operations

Airport use: Private use. Permission required prior to landing
Activation date: 05/1971
Control tower: no
ARTCC: OAKLAND CENTER
FSS: OAKLAND FLIGHT SERVICE STATION
Attendance: IREG
Wind indicator: yes
Segmented circle: no

Nearby radio navigation aids

VOR radial/distance  VOR name  Freq  Var
ILAr201/25.0WILLIAMS VORTAC114.4018E
STSr039/25.3SANTA ROSA VOR/DME113.0016E
SGDr343/34.2SCAGGS ISLAND VORTAC112.1017E

Airport Services

Airframe service: NONE
Powerplant service: NONE

Runway Information

Runway 14/32

Dimensions: 3500 x 30 ft. / 1067 x 9 m
Surface: gravel
RUNWAY 14  RUNWAY 32
Traffic pattern: leftleft

Airport Ownership and Management from official FAA records

Ownership: Privately-owned
Owner: PERRY CLARK
AMIZETTA WINERY 1099 GREENFIELD RD
ST HELENA, CA 94574

Airport Operational Statistics

Aircraft based on the field: 2
Single engine airplanes: 2
    

Additional Remarks

HAZARDOUS STRIP-SURROUNDED BY HILLS, 95 FT FENCE TO FENCE.
FOR CD CTC OAKLAND ARTCC AT 510-745-3380.

Instrument Procedures

There are no published instrument procedures at 20CL.

Some nearby airports with instrument procedures:

O41 - Watts-Woodland Airport (24 nm E)
KSTS - Charles M Schulz - Sonoma County Airport (25 nm SW)
KDWA - Yolo County Airport (26 nm SE)
1O2 - Lampson Field Airport (29 nm NW)
O60 - Cloverdale Municipal Airport (29 nm W)
 
Loc | Ops | Rwys | IFR | FBO | Links
Com | Nav | Svcs | Stats | Notes

Sonoma Jet Center
 
Area around 20CL (Mysterious Valley Airport)
 
Road maps at: MapQuest Bing Google
 
Aerial photo
WARNING: Photo may not be current or correct
Aerial photo of 20CL (Mysterious Valley Airport)
Do you have a better or more recent aerial photo of Mysterious Valley Airport that you would like to share? If so, please send us your photo.

 
Sectional chart

 
Airport distance calculator
Flying to Mysterious Valley Airport? Find the distance to fly.

From to 20CL

Sunrise and sunset
Times for 09-Apr-2020
 Local
(UTC-7)
 Zulu
(UTC)
Morning civil twilight06:1413:14
Sunrise06:4113:41
Sunset19:4002:40
Evening civil twilight20:0803:08

Current date and time
Zulu (UTC)  09-Apr-2020 14:07:58
Local (UTC-7)  09-Apr-2020 07:07:58
 
METAR
KSTS 
26nm SW 
707-573-8393
091353Z 00000KT 9SM FEW004 OVC018 11/10 A2999 RMK AO2 SLP149 T01110100
KVCB 
29nm SE 
091353Z AUTO 20003KT 10SM OVC030 12/09 A3002 RMK AO2 SLP164 T01220089 PNO
KEDU 
30nm SE 
091355Z AUTO 14005KT 10SM OVC026 11/10 A3002 RMK AO1
KO69 
32nm S 
091355Z AUTO 00000KT 10SM BKN011 BKN031 11/11 A3000 RMK A01
KAPC 
33nm S 
091354Z 02004KT 10SM SCT009 BKN021 OVC029 11/10 A3001 RMK AO2 SLP152 T01110100
KSUU 
36nm SE 
091358Z AUTO 11005KT 10SM SCT016 OVC024 11/09 A3002 RMK AO2 SLP173 T01130090 $
KSMF 
36nm E 
091353Z 13011KT 9SM OVC030 11/10 A3001 RMK AO2 SLP162 T01110100
KDVO 
37nm S 
091355Z AUTO 15006KT 10SM OVC032 11/11 A3000 RMK AO2
KMYV 
43nm NE 
091353Z AUTO 14011KT 10SM SCT024 OVC034 11/09 A3001 RMK AO2 SLP167 T01110094
KSAC 
43nm E 
091353Z 14006KT 2 1/2SM BR BKN006 OVC013 11/09 A3003 RMK AO2 RAB35E47 SLP167 P0001 T01060094
TAF
KSTS 
26nm SW 
091139Z 0912/1012 VRB04KT 4SM BR SCT005 OVC015 TEMPO 0912/0915 1 1/2SM BR OVC007 FM091800 16007KT 6SM HZ OVC020 FM092100 19008KT P6SM SCT020 BKN050 FM100300 VRB03KT P6SM OVC015
NOTAMs
Click for the latest NOTAMs
NOTAMs are issued by the DoD/FAA and will open in a separate window not controlled by AirNav.

 

 
 

Would you like to see your business listed on this page?

 If your business provides an interesting product or service to pilots, flight crews, aircraft, or users of the Mysterious Valley Airport, you should consider listing it here.  To start the listing process, click on the button below
 
Add a business
 

Other Pages about Mysterious Valley Airport

Update a link
 
Copyright © AirNav, LLC. All rights reserved. Privacy Policy  Contact